sensor_id;sensor_type;location;lat;lon;timestamp;pressure;altitude;pressure_sealevel;temperature;humidity
75208;BME280;63795;55.684;37.864;2023-04-25T00:00:43;99610.44;;;12.70;41.54
75208;BME280;63795;55.684;37.864;2023-04-25T00:05:43;99616.22;;;12.63;42.77
75208;BME280;63795;55.684;37.864;2023-04-25T00:10:44;99610.84;;;12.69;41.47
75208;BME280;63795;55.684;37.864;2023-04-25T00:15:44;99625.03;;;12.72;42.51
75208;BME280;63795;55.684;37.864;2023-04-25T00:20:46;99621.91;;;12.63;43.35
75208;BME280;63795;55.684;37.864;2023-04-25T00:25:48;99623.16;;;12.59;44.34
75208;BME280;63795;55.684;37.864;2023-04-25T00:30:49;99624.91;;;12.49;44.87
75208;BME280;63795;55.684;37.864;2023-04-25T00:35:50;99616.88;;;12.44;45.31
75208;BME280;63795;55.684;37.864;2023-04-25T00:40:50;99614.06;;;12.41;45.88
75208;BME280;63795;55.684;37.864;2023-04-25T00:45:51;99609.19;;;12.41;46.42
75208;BME280;63795;55.684;37.864;2023-04-25T00:50:53;99613.66;;;12.42;45.76
75208;BME280;63795;55.684;37.864;2023-04-25T00:55:54;99607.03;;;12.49;46.35
75208;BME280;63795;55.684;37.864;2023-04-25T01:00:55;99590.19;;;12.65;43.50
75208;BME280;63795;55.684;37.864;2023-04-25T01:05:56;99583.06;;;12.80;42.96
75208;BME280;63795;55.684;37.864;2023-04-25T01:10:57;99572.31;;;12.91;42.75
75208;BME280;63795;55.684;37.864;2023-04-25T01:15:58;99571.41;;;12.98;42.30
75208;BME280;63795;55.684;37.864;2023-04-25T01:21:07;99559.09;;;13.08;41.91
75208;BME280;63795;55.684;37.864;2023-04-25T01:26:10;99560.66;;;13.12;43.19
75208;BME280;63795;55.684;37.864;2023-04-25T01:31:11;99563.91;;;13.11;44.17
75208;BME280;63795;55.684;37.864;2023-04-25T01:36:12;99558.59;;;13.13;42.63
75208;BME280;63795;55.684;37.864;2023-04-25T01:41:14;99554.44;;;13.17;43.35
75208;BME280;63795;55.684;37.864;2023-04-25T01:46:15;99559.41;;;13.13;43.71
75208;BME280;63795;55.684;37.864;2023-04-25T01:51:15;99546.19;;;13.00;45.44
75208;BME280;63795;55.684;37.864;2023-04-25T01:56:17;99557.94;;;13.02;44.29
75208;BME280;63795;55.684;37.864;2023-04-25T02:01:18;99549.50;;;12.95;45.42
75208;BME280;63795;55.684;37.864;2023-04-25T02:06:18;99549.13;;;12.93;43.46
75208;BME280;63795;55.684;37.864;2023-04-25T02:11:19;99553.47;;;13.01;43.60
75208;BME280;63795;55.684;37.864;2023-04-25T02:16:19;99557.94;;;13.02;42.62
75208;BME280;63795;55.684;37.864;2023-04-25T02:21:20;99571.88;;;12.93;45.25
75208;BME280;63795;55.684;37.864;2023-04-25T02:26:20;99568.78;;;12.83;46.75
75208;BME280;63795;55.684;37.864;2023-04-25T02:31:21;99566.25;;;12.62;47.77
75208;BME280;63795;55.684;37.864;2023-04-25T02:36:21;99578.66;;;12.45;48.25
75208;BME280;63795;55.684;37.864;2023-04-25T02:41:22;99573.50;;;12.37;48.55
75208;BME280;63795;55.684;37.864;2023-04-25T02:46:22;99573.16;;;12.31;48.96
75208;BME280;63795;55.684;37.864;2023-04-25T02:51:24;99579.34;;;12.26;49.68
75208;BME280;63795;55.684;37.864;2023-04-25T02:56:26;99582.19;;;12.26;49.47
75208;BME280;63795;55.684;37.864;2023-04-25T03:01:27;99576.50;;;12.26;49.17
75208;BME280;63795;55.684;37.864;2023-04-25T03:06:27;99571.19;;;12.28;49.87
75208;BME280;63795;55.684;37.864;2023-04-25T03:11:27;99591.09;;;12.25;50.46
75208;BME280;63795;55.684;37.864;2023-04-25T03:16:28;99592.75;;;12.26;50.26
75208;BME280;63795;55.684;37.864;2023-04-25T03:21:29;99596.78;;;12.28;50.05
75208;BME280;63795;55.684;37.864;2023-04-25T03:26:31;99597.53;;;12.32;50.17
75208;BME280;63795;55.684;37.864;2023-04-25T03:31:32;99604.00;;;12.33;50.40
75208;BME280;63795;55.684;37.864;2023-04-25T03:36:32;99594.25;;;12.34;50.82
75208;BME280;63795;55.684;37.864;2023-04-25T03:41:33;99592.22;;;12.34;51.28
75208;BME280;63795;55.684;37.864;2023-04-25T03:46:33;99593.94;;;12.28;51.17
75208;BME280;63795;55.684;37.864;2023-04-25T03:51:34;99594.22;;;12.37;50.51
75208;BME280;63795;55.684;37.864;2023-04-25T03:56:34;99593.06;;;12.61;51.04
75208;BME280;63795;55.684;37.864;2023-04-25T04:01:35;99598.81;;;12.58;50.84
75208;BME280;63795;55.684;37.864;2023-04-25T04:06:35;99584.66;;;12.54;51.23
75208;BME280;63795;55.684;37.864;2023-04-25T04:11:37;99591.56;;;12.53;51.82
75208;BME280;63795;55.684;37.864;2023-04-25T04:16:38;99590.72;;;12.56;52.32
75208;BME280;63795;55.684;37.864;2023-04-25T04:21:39;99578.47;;;12.59;52.30
75208;BME280;63795;55.684;37.864;2023-04-25T04:26:39;99579.94;;;12.71;51.30
75208;BME280;63795;55.684;37.864;2023-04-25T04:31:40;99587.94;;;12.79;51.76
75208;BME280;63795;55.684;37.864;2023-04-25T04:36:40;99589.44;;;12.88;51.85
75208;BME280;63795;55.684;37.864;2023-04-25T04:41:41;99586.09;;;12.93;51.54
75208;BME280;63795;55.684;37.864;2023-04-25T04:46:43;99583.50;;;13.05;51.70
75208;BME280;63795;55.684;37.864;2023-04-25T04:51:44;99576.41;;;13.17;51.66
75208;BME280;63795;55.684;37.864;2023-04-25T04:56:44;99582.44;;;13.22;51.58
75208;BME280;63795;55.684;37.864;2023-04-25T05:01:45;99575.81;;;13.29;51.20
75208;BME280;63795;55.684;37.864;2023-04-25T05:06:47;99576.44;;;13.40;51.36
75208;BME280;63795;55.684;37.864;2023-04-25T05:11:47;99583.13;;;13.53;50.51
75208;BME280;63795;55.684;37.864;2023-04-25T05:16:48;99567.84;;;13.67;51.09
75208;BME280;63795;55.684;37.864;2023-04-25T05:21:48;99569.47;;;13.87;50.03
75208;BME280;63795;55.684;37.864;2023-04-25T05:26:49;99577.63;;;14.08;49.57
75208;BME280;63795;55.684;37.864;2023-04-25T05:31:49;99575.97;;;14.30;49.00
75208;BME280;63795;55.684;37.864;2023-04-25T05:36:50;99578.75;;;14.34;48.90
75208;BME280;63795;55.684;37.864;2023-04-25T05:41:50;99576.03;;;14.46;48.26
75208;BME280;63795;55.684;37.864;2023-04-25T05:46:50;99566.50;;;14.73;47.42
75208;BME280;63795;55.684;37.864;2023-04-25T05:51:51;99556.97;;;14.95;46.98
75208;BME280;63795;55.684;37.864;2023-04-25T05:56:51;99544.81;;;15.27;46.31
75208;BME280;63795;55.684;37.864;2023-04-25T06:01:52;99549.44;;;15.37;45.84
75208;BME280;63795;55.684;37.864;2023-04-25T06:06:52;99545.50;;;15.63;45.38
75208;BME280;63795;55.684;37.864;2023-04-25T06:11:53;99525.22;;;16.02;44.98
75208;BME280;63795;55.684;37.864;2023-04-25T06:16:56;99523.56;;;16.84;43.15
75208;BME280;63795;55.684;37.864;2023-04-25T06:21:56;99520.06;;;17.64;41.28
75208;BME280;63795;55.684;37.864;2023-04-25T06:26:57;99523.28;;;18.22;38.21
75208;BME280;63795;55.684;37.864;2023-04-25T06:31:57;99523.63;;;18.46;38.04
75208;BME280;63795;55.684;37.864;2023-04-25T06:36:58;99521.50;;;18.59;37.25
75208;BME280;63795;55.684;37.864;2023-04-25T06:41:58;99525.06;;;18.72;36.78
75208;BME280;63795;55.684;37.864;2023-04-25T06:46:59;99527.44;;;19.04;35.90
75208;BME280;63795;55.684;37.864;2023-04-25T06:51:59;99529.41;;;19.16;36.84
75208;BME280;63795;55.684;37.864;2023-04-25T06:57:00;99528.09;;;19.48;35.32
75208;BME280;63795;55.684;37.864;2023-04-25T07:02:01;99528.13;;;19.57;34.54
75208;BME280;63795;55.684;37.864;2023-04-25T07:07:01;99525.78;;;19.83;34.69
75208;BME280;63795;55.684;37.864;2023-04-25T07:12:03;99524.84;;;20.13;33.45
75208;BME280;63795;55.684;37.864;2023-04-25T07:17:04;99527.06;;;19.91;33.46
75208;BME280;63795;55.684;37.864;2023-04-25T07:22:06;99527.22;;;19.96;33.61
75208;BME280;63795;55.684;37.864;2023-04-25T07:27:07;99538.78;;;20.42;31.78
75208;BME280;63795;55.684;37.864;2023-04-25T07:32:07;99535.41;;;20.25;32.42
75208;BME280;63795;55.684;37.864;2023-04-25T07:37:08;99533.63;;;19.91;32.58
75208;BME280;63795;55.684;37.864;2023-04-25T07:42:09;99532.53;;;19.98;33.09
75208;BME280;63795;55.684;37.864;2023-04-25T07:47:09;99531.66;;;19.70;33.06
75208;BME280;63795;55.684;37.864;2023-04-25T07:52:10;99543.56;;;18.71;35.77
75208;BME280;63795;55.684;37.864;2023-04-25T07:57:10;99527.16;;;18.28;37.05
75208;BME280;63795;55.684;37.864;2023-04-25T08:02:11;99546.50;;;17.94;37.78
75208;BME280;63795;55.684;37.864;2023-04-25T08:07:11;99532.34;;;17.65;37.24
75208;BME280;63795;55.684;37.864;2023-04-25T08:12:12;99531.13;;;17.53;37.77
75208;BME280;63795;55.684;37.864;2023-04-25T08:17:12;99534.91;;;17.50;37.10
75208;BME280;63795;55.684;37.864;2023-04-25T08:22:13;99523.53;;;17.47;36.42
75208;BME280;63795;55.684;37.864;2023-04-25T08:27:14;99523.00;;;18.08;36.06
75208;BME280;63795;55.684;37.864;2023-04-25T08:32:15;99525.72;;;19.07;33.69
75208;BME280;63795;55.684;37.864;2023-04-25T08:37:15;99518.56;;;19.20;33.35
75208;BME280;63795;55.684;37.864;2023-04-25T08:42:16;99500.50;;;19.60;32.65
75208;BME280;63795;55.684;37.864;2023-04-25T08:47:21;99486.78;;;19.91;32.28
75208;BME280;63795;55.684;37.864;2023-04-25T08:52:22;99489.63;;;20.45;31.29
75208;BME280;63795;55.684;37.864;2023-04-25T08:57:24;99492.44;;;20.72;31.09
75208;BME280;63795;55.684;37.864;2023-04-25T09:02:25;99477.78;;;20.52;30.61
75208;BME280;63795;55.684;37.864;2023-04-25T09:07:26;99482.44;;;20.50;30.42
75208;BME280;63795;55.684;37.864;2023-04-25T09:12:27;99472.50;;;21.58;31.23
75208;BME280;63795;55.684;37.864;2023-04-25T09:17:29;99460.06;;;22.28;30.48
75208;BME280;63795;55.684;37.864;2023-04-25T09:22:29;99471.03;;;22.97;27.50
75208;BME280;63795;55.684;37.864;2023-04-25T09:27:30;99454.69;;;22.36;29.10
75208;BME280;63795;55.684;37.864;2023-04-25T09:32:30;99463.31;;;23.58;28.14
75208;BME280;63795;55.684;37.864;2023-04-25T09:37:31;99444.91;;;23.61;27.63
75208;BME280;63795;55.684;37.864;2023-04-25T09:42:32;99449.31;;;22.87;26.76
75208;BME280;63795;55.684;37.864;2023-04-25T09:47:37;99451.50;;;22.34;26.79
75208;BME280;63795;55.684;37.864;2023-04-25T09:52:37;99444.31;;;22.15;26.93
75208;BME280;63795;55.684;37.864;2023-04-25T09:57:38;99436.91;;;21.84;26.92
75208;BME280;63795;55.684;37.864;2023-04-25T10:02:42;99437.63;;;21.94;26.90
75208;BME280;63795;55.684;37.864;2023-04-25T10:07:43;99444.13;;;22.18;26.34
75208;BME280;63795;55.684;37.864;2023-04-25T10:12:45;99443.31;;;22.18;25.51
75208;BME280;63795;55.684;37.864;2023-04-25T10:17:45;99434.50;;;21.83;27.06
75208;BME280;63795;55.684;37.864;2023-04-25T10:22:46;99431.06;;;22.23;27.15
75208;BME280;63795;55.684;37.864;2023-04-25T10:27:51;99416.41;;;23.74;27.02
75208;BME280;63795;55.684;37.864;2023-04-25T10:32:54;99408.91;;;23.27;25.62
75208;BME280;63795;55.684;37.864;2023-04-25T10:38:05;99413.06;;;23.81;24.19
75208;BME280;63795;55.684;37.864;2023-04-25T10:48:31;99383.72;;;23.48;24.68
75208;BME280;63795;55.684;37.864;2023-04-25T10:53:33;99381.75;;;23.39;24.69
75208;BME280;63795;55.684;37.864;2023-04-25T10:58:34;99382.44;;;23.14;25.44
75208;BME280;63795;55.684;37.864;2023-04-25T11:03:40;99376.19;;;21.93;26.95
75208;BME280;63795;55.684;37.864;2023-04-25T11:08:49;99368.81;;;21.92;26.89
75208;BME280;63795;55.684;37.864;2023-04-25T11:13:50;99365.44;;;22.23;26.88
75208;BME280;63795;55.684;37.864;2023-04-25T11:18:50;99366.03;;;21.45;27.85
75208;BME280;63795;55.684;37.864;2023-04-25T11:23:51;99357.91;;;21.73;27.68
75208;BME280;63795;55.684;37.864;2023-04-25T11:28:57;99351.78;;;21.80;27.69
75208;BME280;63795;55.684;37.864;2023-04-25T11:33:57;99338.88;;;21.90;27.59
75208;BME280;63795;55.684;37.864;2023-04-25T11:38:58;99336.38;;;21.83;27.76
75208;BME280;63795;55.684;37.864;2023-04-25T11:43:58;99331.59;;;21.42;28.52
75208;BME280;63795;55.684;37.864;2023-04-25T11:48:59;99320.84;;;21.80;28.67
75208;BME280;63795;55.684;37.864;2023-04-25T11:53:59;99322.19;;;22.72;27.57
75208;BME280;63795;55.684;37.864;2023-04-25T11:59:02;99312.22;;;22.59;27.29
75208;BME280;63795;55.684;37.864;2023-04-25T12:04:20;99295.00;;;22.64;27.01
75208;BME280;63795;55.684;37.864;2023-04-25T12:09:28;99303.28;;;22.42;27.06
75208;BME280;63795;55.684;37.864;2023-04-25T12:14:33;99295.22;;;22.81;26.82
75208;BME280;63795;55.684;37.864;2023-04-25T12:19:35;99287.88;;;23.20;26.24
75208;BME280;63795;55.684;37.864;2023-04-25T12:24:36;99280.56;;;21.86;27.60
75208;BME280;63795;55.684;37.864;2023-04-25T12:29:37;99265.44;;;21.00;28.79
75208;BME280;63795;55.684;37.864;2023-04-25T12:34:37;99264.72;;;20.67;28.84
75208;BME280;63795;55.684;37.864;2023-04-25T12:39:38;99247.31;;;20.61;29.12
75208;BME280;63795;55.684;37.864;2023-04-25T12:44:39;99235.38;;;20.54;29.83
75208;BME280;63795;55.684;37.864;2023-04-25T12:49:40;99238.09;;;20.95;29.34
75208;BME280;63795;55.684;37.864;2023-04-25T12:54:40;99229.66;;;20.92;28.72
75208;BME280;63795;55.684;37.864;2023-04-25T12:59:41;99229.34;;;20.66;29.17
75208;BME280;63795;55.684;37.864;2023-04-25T13:04:41;99212.53;;;20.50;29.42
75208;BME280;63795;55.684;37.864;2023-04-25T13:09:42;99211.44;;;20.39;29.84
75208;BME280;63795;55.684;37.864;2023-04-25T13:14:43;99197.75;;;20.33;29.82
75208;BME280;63795;55.684;37.864;2023-04-25T13:19:43;99188.78;;;20.31;29.22
75208;BME280;63795;55.684;37.864;2023-04-25T13:24:44;99172.25;;;20.08;29.50
75208;BME280;63795;55.684;37.864;2023-04-25T13:29:44;99176.97;;;19.97;30.00
75208;BME280;63795;55.684;37.864;2023-04-25T13:34:45;99171.81;;;20.01;30.20
75208;BME280;63795;55.684;37.864;2023-04-25T13:39:45;99165.16;;;20.18;30.06
75208;BME280;63795;55.684;37.864;2023-04-25T13:44:46;99154.69;;;20.06;30.34
75208;BME280;63795;55.684;37.864;2023-04-25T13:49:46;99142.03;;;20.13;30.09
75208;BME280;63795;55.684;37.864;2023-04-25T13:54:47;99137.53;;;20.21;30.37
75208;BME280;63795;55.684;37.864;2023-04-25T13:59:47;99130.22;;;20.34;30.17
75208;BME280;63795;55.684;37.864;2023-04-25T14:04:48;99121.28;;;20.32;30.26
75208;BME280;63795;55.684;37.864;2023-04-25T14:09:48;99111.41;;;20.01;30.86
75208;BME280;63795;55.684;37.864;2023-04-25T14:14:49;99108.63;;;19.83;31.04
75208;BME280;63795;55.684;37.864;2023-04-25T14:19:50;99092.47;;;19.85;31.16
75208;BME280;63795;55.684;37.864;2023-04-25T14:24:50;99104.22;;;19.73;30.91
75208;BME280;63795;55.684;37.864;2023-04-25T14:29:51;99080.78;;;19.65;30.85
75208;BME280;63795;55.684;37.864;2023-04-25T14:34:51;99084.53;;;19.47;31.00
75208;BME280;63795;55.684;37.864;2023-04-25T14:39:52;99078.09;;;19.62;30.63
75208;BME280;63795;55.684;37.864;2023-04-25T14:44:52;99065.06;;;19.75;30.54
75208;BME280;63795;55.684;37.864;2023-04-25T14:49:53;99063.78;;;20.00;30.10
75208;BME280;63795;55.684;37.864;2023-04-25T14:54:54;99040.00;;;20.14;30.07
75208;BME280;63795;55.684;37.864;2023-04-25T14:59:54;99043.84;;;20.20;29.69
75208;BME280;63795;55.684;37.864;2023-04-25T15:04:55;99038.50;;;20.04;28.64
75208;BME280;63795;55.684;37.864;2023-04-25T15:09:56;99021.78;;;19.70;29.30
75208;BME280;63795;55.684;37.864;2023-04-25T15:14:57;99010.78;;;19.92;29.33
75208;BME280;63795;55.684;37.864;2023-04-25T15:19:57;99011.00;;;20.03;29.03
75208;BME280;63795;55.684;37.864;2023-04-25T15:24:58;98999.56;;;19.94;28.97
75208;BME280;63795;55.684;37.864;2023-04-25T15:29:58;98994.31;;;20.07;29.19
75208;BME280;63795;55.684;37.864;2023-04-25T15:35:03;98990.25;;;19.99;29.23
75208;BME280;63795;55.684;37.864;2023-04-25T15:40:13;98976.84;;;19.96;29.06
75208;BME280;63795;55.684;37.864;2023-04-25T15:45:14;98970.44;;;19.77;29.30
75208;BME280;63795;55.684;37.864;2023-04-25T15:50:17;98957.91;;;19.66;29.40
75208;BME280;63795;55.684;37.864;2023-04-25T15:55:19;98964.28;;;19.70;29.59
75208;BME280;63795;55.684;37.864;2023-04-25T16:00:20;98955.56;;;19.79;29.54
75208;BME280;63795;55.684;37.864;2023-04-25T16:05:22;98933.44;;;19.46;29.73
75208;BME280;63795;55.684;37.864;2023-04-25T16:10:22;98934.00;;;19.60;29.56
75208;BME280;63795;55.684;37.864;2023-04-25T16:15:23;98932.09;;;19.57;29.98
75208;BME280;63795;55.684;37.864;2023-04-25T16:20:23;98928.84;;;19.40;30.08
75208;BME280;63795;55.684;37.864;2023-04-25T16:25:24;98927.53;;;19.17;30.32
75208;BME280;63795;55.684;37.864;2023-04-25T16:30:25;98926.13;;;19.13;30.26
75208;BME280;63795;55.684;37.864;2023-04-25T16:35:25;98917.69;;;19.09;31.22
75208;BME280;63795;55.684;37.864;2023-04-25T16:40:29;98941.09;;;18.84;34.53
75208;BME280;63795;55.684;37.864;2023-04-25T16:45:30;98938.75;;;18.05;39.36
75208;BME280;63795;55.684;37.864;2023-04-25T16:50:30;98944.03;;;17.61;40.83
75208;BME280;63795;55.684;37.864;2023-04-25T16:55:31;98951.25;;;17.26;42.68
75208;BME280;63795;55.684;37.864;2023-04-25T17:00:31;98953.56;;;16.91;45.80
75208;BME280;63795;55.684;37.864;2023-04-25T17:05:34;98966.38;;;16.77;45.63
75208;BME280;63795;55.684;37.864;2023-04-25T17:10:34;98967.81;;;16.73;47.21
75208;BME280;63795;55.684;37.864;2023-04-25T17:15:35;98973.34;;;16.46;51.12
75208;BME280;63795;55.684;37.864;2023-04-25T17:20:36;98975.72;;;16.16;52.86
75208;BME280;63795;55.684;37.864;2023-04-25T17:25:37;98982.78;;;15.69;55.83
75208;BME280;63795;55.684;37.864;2023-04-25T17:30:37;98974.41;;;15.27;57.62
75208;BME280;63795;55.684;37.864;2023-04-25T17:35:38;98960.19;;;15.02;57.33
75208;BME280;63795;55.684;37.864;2023-04-25T17:40:39;98968.06;;;14.98;59.15
75208;BME280;63795;55.684;37.864;2023-04-25T17:45:40;98950.16;;;14.98;58.95
75208;BME280;63795;55.684;37.864;2023-04-25T17:50:40;98946.94;;;14.96;59.87
75208;BME280;63795;55.684;37.864;2023-04-25T17:55:41;98941.94;;;15.00;58.74
75208;BME280;63795;55.684;37.864;2023-04-25T18:00:43;98945.25;;;14.98;59.36
75208;BME280;63795;55.684;37.864;2023-04-25T18:05:43;98944.22;;;15.05;56.76
75208;BME280;63795;55.684;37.864;2023-04-25T18:10:44;98945.09;;;15.27;58.38
75208;BME280;63795;55.684;37.864;2023-04-25T18:15:44;98938.03;;;15.19;59.40
75208;BME280;63795;55.684;37.864;2023-04-25T18:20:45;98941.03;;;15.03;59.80
75208;BME280;63795;55.684;37.864;2023-04-25T18:25:46;98933.03;;;14.98;59.00
75208;BME280;63795;55.684;37.864;2023-04-25T18:30:47;98925.63;;;14.88;58.93
75208;BME280;63795;55.684;37.864;2023-04-25T18:35:49;98924.94;;;14.84;58.42
75208;BME280;63795;55.684;37.864;2023-04-25T18:40:49;98922.09;;;14.84;57.14
75208;BME280;63795;55.684;37.864;2023-04-25T18:45:50;98909.97;;;15.05;57.66
75208;BME280;63795;55.684;37.864;2023-04-25T18:50:50;98909.97;;;15.05;58.22
75208;BME280;63795;55.684;37.864;2023-04-25T18:55:51;98900.13;;;15.06;58.13
75208;BME280;63795;55.684;37.864;2023-04-25T19:00:51;98904.13;;;15.08;55.92
75208;BME280;63795;55.684;37.864;2023-04-25T19:05:52;98905.44;;;15.29;56.08
75208;BME280;63795;55.684;37.864;2023-04-25T19:10:53;98885.97;;;15.15;55.69
75208;BME280;63795;55.684;37.864;2023-04-25T19:16:12;98878.09;;;15.06;54.96
75208;BME280;63795;55.684;37.864;2023-04-25T19:21:13;98877.28;;;15.06;54.80
75208;BME280;63795;55.684;37.864;2023-04-25T19:26:13;98870.34;;;15.07;54.64
75208;BME280;63795;55.684;37.864;2023-04-25T19:31:14;98855.59;;;15.08;55.41
75208;BME280;63795;55.684;37.864;2023-04-25T19:36:15;98850.50;;;14.91;56.11
75208;BME280;63795;55.684;37.864;2023-04-25T19:41:15;98843.78;;;14.85;55.17
75208;BME280;63795;55.684;37.864;2023-04-25T19:46:17;98834.13;;;15.04;53.76
75208;BME280;63795;55.684;37.864;2023-04-25T19:51:17;98821.34;;;15.08;53.88
75208;BME280;63795;55.684;37.864;2023-04-25T19:56:18;98826.19;;;14.99;55.47
75208;BME280;63795;55.684;37.864;2023-04-25T20:01:18;98806.22;;;14.86;54.84
75208;BME280;63795;55.684;37.864;2023-04-25T20:06:21;98800.66;;;14.83;55.63
75208;BME280;63795;55.684;37.864;2023-04-25T20:11:21;98793.66;;;14.84;54.33
75208;BME280;63795;55.684;37.864;2023-04-25T20:16:22;98791.09;;;14.77;55.82
75208;BME280;63795;55.684;37.864;2023-04-25T20:21:23;98784.13;;;14.65;54.49
75208;BME280;63795;55.684;37.864;2023-04-25T20:26:23;98780.28;;;14.59;56.52
75208;BME280;63795;55.684;37.864;2023-04-25T20:31:25;98756.00;;;14.55;55.21
75208;BME280;63795;55.684;37.864;2023-04-25T20:36:25;98748.69;;;14.54;57.98
75208;BME280;63795;55.684;37.864;2023-04-25T20:41:26;98749.31;;;14.36;56.44
75208;BME280;63795;55.684;37.864;2023-04-25T20:46:27;98741.41;;;14.27;57.83
75208;BME280;63795;55.684;37.864;2023-04-25T20:51:31;98728.31;;;14.17;57.16
75208;BME280;63795;55.684;37.864;2023-04-25T20:56:31;98727.56;;;14.04;57.24
75208;BME280;63795;55.684;37.864;2023-04-25T21:01:32;98721.41;;;13.93;60.37
75208;BME280;63795;55.684;37.864;2023-04-25T21:06:33;98719.25;;;13.72;61.49
75208;BME280;63795;55.684;37.864;2023-04-25T21:11:34;98714.34;;;13.60;60.87
75208;BME280;63795;55.684;37.864;2023-04-25T21:16:34;98706.84;;;13.66;59.53
75208;BME280;63795;55.684;37.864;2023-04-25T21:21:37;98699.19;;;13.76;58.89
75208;BME280;63795;55.684;37.864;2023-04-25T21:26:38;98701.38;;;13.84;59.25
75208;BME280;63795;55.684;37.864;2023-04-25T21:31:39;98687.25;;;13.68;61.12
75208;BME280;63795;55.684;37.864;2023-04-25T21:36:41;98682.47;;;13.40;62.90
75208;BME280;63795;55.684;37.864;2023-04-25T21:41:43;98678.59;;;13.34;61.41
75208;BME280;63795;55.684;37.864;2023-04-25T21:46:43;98675.69;;;13.09;62.65
75208;BME280;63795;55.684;37.864;2023-04-25T21:51:44;98667.97;;;13.09;66.41
75208;BME280;63795;55.684;37.864;2023-04-25T21:56:44;98663.75;;;13.14;63.14
75208;BME280;63795;55.684;37.864;2023-04-25T22:01:45;98663.06;;;13.10;63.87
75208;BME280;63795;55.684;37.864;2023-04-25T22:06:46;98649.78;;;12.91;68.10
75208;BME280;63795;55.684;37.864;2023-04-25T22:11:47;98642.59;;;12.73;67.44
75208;BME280;63795;55.684;37.864;2023-04-25T22:16:47;98636.22;;;12.69;68.38
75208;BME280;63795;55.684;37.864;2023-04-25T22:21:53;98631.63;;;12.59;69.73
75208;BME280;63795;55.684;37.864;2023-04-25T22:26:54;98615.84;;;12.58;67.09
75208;BME280;63795;55.684;37.864;2023-04-25T22:31:55;98627.56;;;12.60;68.11
75208;BME280;63795;55.684;37.864;2023-04-25T22:36:55;98611.19;;;12.64;66.23
75208;BME280;63795;55.684;37.864;2023-04-25T22:41:56;98600.25;;;12.63;66.30
75208;BME280;63795;55.684;37.864;2023-04-25T22:46:57;98593.22;;;12.67;66.93
75208;BME280;63795;55.684;37.864;2023-04-25T22:51:58;98579.22;;;12.60;65.70
75208;BME280;63795;55.684;37.864;2023-04-25T22:56:59;98573.41;;;12.51;67.05
75208;BME280;63795;55.684;37.864;2023-04-25T23:01:59;98570.56;;;12.51;66.68
75208;BME280;63795;55.684;37.864;2023-04-25T23:07:00;98555.91;;;12.65;66.31
75208;BME280;63795;55.684;37.864;2023-04-25T23:12:01;98541.44;;;12.47;71.32
75208;BME280;63795;55.684;37.864;2023-04-25T23:17:01;98535.59;;;12.26;72.00
75208;BME280;63795;55.684;37.864;2023-04-25T23:22:02;98534.59;;;12.32;72.96
75208;BME280;63795;55.684;37.864;2023-04-25T23:27:03;98530.91;;;12.19;73.10
75208;BME280;63795;55.684;37.864;2023-04-25T23:32:04;98517.00;;;12.09;72.52
75208;BME280;63795;55.684;37.864;2023-04-25T23:37:05;98505.28;;;12.07;73.23
75208;BME280;63795;55.684;37.864;2023-04-25T23:42:06;98499.38;;;12.01;72.94
75208;BME280;63795;55.684;37.864;2023-04-25T23:47:07;98499.38;;;12.01;70.27
75208;BME280;63795;55.684;37.864;2023-04-25T23:52:07;98495.84;;;11.97;73.15
75208;BME280;63795;55.684;37.864;2023-04-25T23:57:08;98493.34;;;11.99;73.62
